CYXE

Saskatoon John G. Diefenbaker International Airport

Saskatoon, Saskatchewan, Canada
METAR CYXE 140000Z 24010KT 15SM SCT240 M05/M07 A2970 RMK CI3 SLP095
Observed Flight Rules
Dec-14 @ 00:00 UTC (44 minutes ago) Visual Flight Rules
Wind Visibility Clouds
240° at 10 knots 15 miles
  • Scattered at 24,000' AGL
Temperatures Readings
Current -5°C / 23°F
Dewpoint -7°C / 19°F
Humidity 86%
Altimeter 29.7" Hg
Pressure 1009.5 hPa
Elevation 504
METAR CYXE 140000Z 24010KT 15SM SCT240 M05/M07 A2970 RMK CI3 SLP095
Observed Flight Rules
Dec-14 @ 00:00 UTC
(44 minutes ago)
VFR
Wind Visibility
240° at 10 knots 15 miles
Clouds
  • Scattered at 24,000' AGL
Temperature Dewpoint
-5°C / 23°F -7°C / 19°F
Humidity Altimeter Pressure
86% 29.7" Hg 1009.5 hPa